Sulphur Springs, TX (75482)

11:14 PM CDT on September 01, 2015 (GMT -0500)
Sulphur Springs Municipal | | Change Station
CLOSE
Current Station
Airport
Location: Sulphur Springs,
Elevation: 489 ft
Nearby Weather Stations

Elev 489 ft 33.16 °N, 95.62 °W | Updated 19 minutes ago

Clear
Clear
77 °F
Feels Like 77 °F
N
6
Wind Variable Wind from SSE

Today
High -- | Low -- °F
--% Chance of Precip.
Yesterday
High -- | Low -- °F
Precip. -- in
6:56 AM 7:47 PM
Waning Gibbous, 84% visible
Pressure 30.07 in
Visibility 10.0 miles
Clouds Clear
Dew Point 68 °F
Humidity 75%
Rainfall 0.00 in
Snow Depth Not available.
UV 0 out of 12
Pollen 9.10 out of 12
Air Quality Not available.
Flu Activity Not available.
METAR KSLR 020355Z AUTO 15005KT 10SM CLR 25/20 A3007 RMK AO2 T02500202
Pressure 30.07 in
Visibility 10.0 miles
Clouds Clear
Dew Point 68 °F
Humidity 75%
Rainfall 0.00 in
Snow Depth Not available.
UV 0 out of 12
Pollen 9.10 out of 12
Air Quality Not available.
Flu Activity Not available.
METAR KSLR 020355Z AUTO 15005KT 10SM CLR 25/20 A3007 RMK AO2 T02500202

10-Day Weather Forecast

×

Almanac

Astronomy

Sep. 01, 2015 Rise Set
Actual Time
Civil Twilight
Nautical Twilight
Astronomical Twilight
Moon
Length of Visible Light
Length of Day
Tomorrow will be .
, % of the Moon is Illuminated

Today's Extremes

State Highs State Lows

Community

WunderPhotos

Upload Photos

1,851,691 photos uploaded!

WunderBlogs® & News

Nearby

Air Quality

  Air Quality AQ Index Pollutant
Not available.

Snow Depth

Station Depth Elevation

Earthquake Activity

City Distance Mag. Time & Date
Minimum magnitude displayed is 2.5.

Coastal Water Temperatures

Place Temperature

Stations

Nearby Weather Stations

Station Location Temp. Windchill Dew Point Humidity Wind Precip. Elev Updated Type